Time;durP1;ratioP1;P1;durP2;ratioP2;P2;SDS_P1;SDS_P2;PMS_P1;PMS_P2;Temp;Humidity;BMP_temperature;BMP_pressure;BME280_temperature;BME280_humidity;BME280_pressure;Samples;Min_cycle;Max_cycle;Signal;HPM_P1;HPM_P2
2023/09/18 00:00:50;;;;;;;20.08;12.85;;;21.10;95.10;;;;;;5053336;28;20036;-81
2023/09/18 00:03:20;;;;;;;21.83;12.73;;;21.20;95.10;;;;;;5054153;28;20022;-81
2023/09/18 00:05:50;;;;;;;21.02;13.10;;;21.20;95.20;;;;;;5054097;28;20033;-80
2023/09/18 00:08:17;;;;;;;16.70;12.35;;;21.20;95.20;;;;;;5053055;28;20045;-80
2023/09/18 00:10:46;;;;;;;16.90;11.95;;;21.20;95.20;;;;;;5054015;28;20026;-80
2023/09/18 00:13:12;;;;;;;17.65;12.10;;;21.20;95.60;;;;;;5054082;28;20025;-81
2023/09/18 00:15:38;;;;;;;17.88;12.60;;;21.20;95.20;;;;;;5053148;28;20093;-81
2023/09/18 00:18:04;;;;;;;19.63;13.30;;;21.20;95.20;;;;;;5052901;28;20041;-81
2023/09/18 00:20:30;;;;;;;21.35;13.30;;;21.20;95.20;;;;;;5053828;28;20021;-80
2023/09/18 00:22:56;;;;;;;18.75;12.90;;;21.20;95.20;;;;;;5053809;28;20079;-80
2023/09/18 00:25:22;;;;;;;18.35;12.57;;;21.20;95.20;;;;;;5053683;28;20029;-80
2023/09/18 00:27:48;;;;;;;18.20;12.52;;;21.20;95.20;;;;;;5053741;28;20025;-80
2023/09/18 00:30:14;;;;;;;21.60;12.95;;;21.20;95.20;;;;;;5053681;28;20018;-80
2023/09/18 00:32:40;;;;;;;18.30;12.48;;;21.20;95.20;;;;;;5053619;28;20075;-80
2023/09/18 00:35:05;;;;;;;17.52;12.68;;;21.20;95.60;;;;;;5052613;28;20031;-80
2023/09/18 00:37:31;;;;;;;17.02;11.93;;;21.20;95.20;;;;;;5052362;28;20052;-81
2023/09/18 00:39:57;;;;;;;20.70;13.07;;;21.20;95.20;;;;;;5053541;28;20079;-80
2023/09/18 00:42:24;;;;;;;17.85;12.35;;;21.10;95.20;;;;;;5052568;28;20049;-80
2023/09/18 00:44:50;;;;;;;19.10;12.32;;;21.10;95.20;;;;;;5053503;28;20056;-81
2023/09/18 00:47:16;;;;;;;17.42;11.35;;;21.10;95.20;;;;;;5052368;28;20045;-81
2023/09/18 00:49:46;;;;;;;17.58;12.23;;;21.10;95.30;;;;;;5052487;28;20046;-81
2023/09/18 00:52:12;;;;;;;17.55;12.23;;;21.10;95.30;;;;;;5053495;28;20010;-80
2023/09/18 00:54:40;;;;;;;16.45;12.30;;;21.10;95.30;;;;;;5052705;28;20048;-80
2023/09/18 00:57:06;;;;;;;18.25;11.63;;;21.10;95.30;;;;;;5035804;28;20052;-81
2023/09/18 00:59:33;;;;;;;14.95;11.63;;;21.10;95.40;;;;;;5052414;28;20549;-80
2023/09/18 01:01:59;;;;;;;17.73;11.88;;;21.10;95.40;;;;;;5052276;28;20080;-80
2023/09/18 01:04:26;;;;;;;17.15;12.00;;;21.10;95.50;;;;;;5053210;28;20052;-81
2023/09/18 01:06:52;;;;;;;16.30;12.30;;;21.10;95.50;;;;;;5053151;28;20036;-80
2023/09/18 01:09:19;;;;;;;18.58;11.82;;;21.10;95.50;;;;;;5035854;28;20017;-80
2023/09/18 01:11:50;;;;;;;16.95;11.88;;;21.10;95.60;;;;;;5053151;28;20029;-80
2023/09/18 01:14:35;;;;;;;18.02;11.55;;;21.10;95.60;;;;;;5053333;28;20048;-80
2023/09/18 01:17:03;;;;;;;19.45;11.10;;;21.10;95.60;;;;;;5052195;28;20025;-80
2023/09/18 01:19:37;;;;;;;15.43;11.32;;;21.10;95.70;;;;;;5052199;28;20029;-80
2023/09/18 01:22:04;;;;;;;20.33;12.10;;;21.10;95.80;;;;;;5053043;28;20080;-80
2023/09/18 01:24:35;;;;;;;13.60;10.60;;;21.10;95.80;;;;;;5053005;28;20100;-80
2023/09/18 01:27:01;;;;;;;18.13;11.27;;;21.10;95.80;;;;;;5051929;28;20045;-80
2023/09/18 01:29:27;;;;;;;16.40;11.02;;;21.10;95.80;;;;;;5052047;28;20053;-80
2023/09/18 01:31:53;;;;;;;18.42;11.75;;;21.10;95.90;;;;;;5052946;28;20116;-80
2023/09/18 01:34:21;;;;;;;19.13;11.05;;;21.00;95.90;;;;;;5051926;28;20022;-80
2023/09/18 01:36:47;;;;;;;15.27;11.02;;;21.00;96.00;;;;;;5051700;28;20049;-80
2023/09/18 01:39:14;;;;;;;17.60;10.02;;;21.00;96.00;;;;;;5052938;28;20034;-80
2023/09/18 01:41:41;;;;;;;16.52;10.73;;;21.00;96.00;;;;;;5052842;28;20029;-80
2023/09/18 01:44:07;;;;;;;16.63;10.30;;;21.00;96.00;;;;;;5051933;28;20056;-80
2023/09/18 01:46:36;;;;;;;12.82;9.68;;;21.00;96.00;;;;;;5051836;28;20042;-80
2023/09/18 01:49:04;;;;;;;14.80;9.82;;;21.00;96.10;;;;;;5052802;28;20052;-80
2023/09/18 01:51:30;;;;;;;15.63;9.80;;;21.00;96.10;;;;;;5051768;28;20033;-80
2023/09/18 01:53:56;;;;;;;15.98;10.13;;;21.00;96.10;;;;;;5051740;28;20029;-80
2023/09/18 01:56:23;;;;;;;16.42;9.63;;;21.00;96.20;;;;;;5051881;28;20029;-80
2023/09/18 01:58:48;;;;;;;14.70;9.27;;;21.00;96.20;;;;;;5051806;28;20025;-80
2023/09/18 02:01:14;;;;;;;13.38;8.88;;;21.00;96.20;;;;;;5051729;28;20049;-80
2023/09/18 02:03:41;;;;;;;14.50;8.50;;;21.10;96.20;;;;;;5051810;28;20037;-80
2023/09/18 02:06:10;;;;;;;13.35;9.27;;;21.10;96.20;;;;;;5055841;28;20026;-80
2023/09/18 02:08:35;;;;;;;17.25;8.77;;;21.10;96.30;;;;;;5055365;28;20033;-80
2023/09/18 02:11:02;;;;;;;13.48;9.02;;;21.10;96.30;;;;;;5055253;28;20025;-80
2023/09/18 02:13:28;;;;;;;19.25;9.02;;;21.10;96.30;;;;;;5056289;28;20021;-80
2023/09/18 02:15:55;;;;;;;14.93;8.55;;;21.10;96.30;;;;;;5055134;28;20556;-80
2023/09/18 02:18:20;;;;;;;12.48;7.90;;;21.10;96.30;;;;;;5056108;28;20030;-81
2023/09/18 02:20:48;;;;;;;12.18;7.95;;;21.10;96.20;;;;;;5056115;28;20055;-81
2023/09/18 02:23:15;;;;;;;11.73;7.57;;;21.20;96.20;;;;;;5055114;28;20049;-81
2023/09/18 02:25:40;;;;;;;13.23;7.88;;;21.20;96.20;;;;;;5055144;28;20056;-80
2023/09/18 02:28:07;;;;;;;15.68;8.27;;;21.20;96.20;;;;;;5055957;28;20031;-80
2023/09/18 02:30:32;;;;;;;11.13;7.40;;;21.20;96.20;;;;;;5022141;28;20021;-81
2023/09/18 02:32:59;;;;;;;12.52;7.72;;;21.10;96.20;;;;;;5055067;28;20045;-80
2023/09/18 02:35:25;;;;;;;12.68;7.68;;;21.10;96.20;;;;;;5055760;28;20029;-80
2023/09/18 02:37:51;;;;;;;11.43;7.80;;;21.20;96.20;;;;;;5054734;28;20056;-80
2023/09/18 02:40:17;;;;;;;12.45;7.28;;;21.20;96.20;;;;;;5055737;28;20037;-81
2023/09/18 02:42:43;;;;;;;12.68;8.20;;;21.20;96.20;;;;;;5038346;28;20029;-80
2023/09/18 02:45:09;;;;;;;13.70;8.02;;;21.30;96.20;;;;;;5038217;28;20022;-80
2023/09/18 02:47:37;;;;;;;12.30;7.50;;;21.20;96.10;;;;;;5054646;28;20029;-80
2023/09/18 02:50:05;;;;;;;10.32;7.55;;;21.30;96.10;;;;;;5055588;28;20073;-80
2023/09/18 02:52:31;;;;;;;12.10;7.45;;;21.30;96.10;;;;;;5054726;28;20036;-80
2023/09/18 02:54:56;;;;;;;14.88;8.00;;;21.30;96.00;;;;;;5054572;28;20025;-80
2023/09/18 02:57:22;;;;;;;11.70;7.43;;;21.30;96.00;;;;;;5038046;28;20096;-80
2023/09/18 02:59:47;;;;;;;12.30;7.55;;;21.30;96.00;;;;;;5054558;28;20506;-80
2023/09/18 03:02:13;;;;;;;13.63;7.80;;;21.20;96.00;;;;;;5054456;28;20036;-81
2023/09/18 03:04:39;;;;;;;12.23;7.95;;;21.30;96.00;;;;;;5054481;28;20057;-80
2023/09/18 03:07:05;;;;;;;12.52;8.07;;;21.20;95.90;;;;;;5054240;28;20038;-80
2023/09/18 03:09:30;;;;;;;14.13;7.88;;;21.30;95.90;;;;;;5054220;28;20033;-80
2023/09/18 03:11:56;;;;;;;11.85;7.70;;;21.20;96.00;;;;;;5054292;28;20077;-81
2023/09/18 03:14:21;;;;;;;13.00;7.70;;;21.20;95.90;;;;;;5054199;28;20485;-81
2023/09/18 03:16:47;;;;;;;16.48;7.68;;;21.20;95.90;;;;;;5053527;28;20033;-80
2023/09/18 03:19:13;;;;;;;11.48;7.55;;;21.20;95.90;;;;;;5037620;28;20037;-80
2023/09/18 03:21:38;;;;;;;10.35;7.57;;;21.30;96.00;;;;;;5054978;28;20034;-80
2023/09/18 03:24:04;;;;;;;12.85;7.45;;;21.20;96.00;;;;;;5053978;28;20040;-80
2023/09/18 03:26:30;;;;;;;14.40;7.18;;;21.20;96.00;;;;;;5037382;28;20034;-80
2023/09/18 03:28:56;;;;;;;9.43;6.70;;;21.10;96.10;;;;;;5053893;28;20032;-80
2023/09/18 03:31:21;;;;;;;12.55;6.57;;;21.10;96.10;;;;;;5037356;28;20025;-80
2023/09/18 03:33:47;;;;;;;12.63;6.57;;;21.10;96.20;;;;;;5053769;28;20034;-80
2023/09/18 03:36:13;;;;;;;11.45;6.80;;;21.10;96.20;;;;;;5054567;28;20077;-80
2023/09/18 03:38:39;;;;;;;11.18;6.38;;;21.10;96.30;;;;;;5053800;28;20048;-80
2023/09/18 03:41:05;;;;;;;14.45;7.07;;;21.10;96.30;;;;;;5053681;28;20025;-80
2023/09/18 03:43:30;;;;;;;12.02;6.38;;;21.10;96.30;;;;;;5054583;28;20037;-80
2023/09/18 03:46:04;;;;;;;12.05;6.13;;;21.00;96.30;;;;;;5036978;28;20037;-80
2023/09/18 03:48:36;;;;;;;11.65;7.07;;;21.00;96.80;;;;;;5053502;28;20014;-80
2023/09/18 03:51:01;;;;;;;12.60;6.30;;;21.00;96.50;;;;;;5038105;28;20021;-80
2023/09/18 03:53:27;;;;;;;11.60;6.38;;;20.90;96.50;;;;;;5053365;28;20032;-80
2023/09/18 03:55:53;;;;;;;14.02;6.85;;;21.00;96.50;;;;;;5053490;28;20029;-80
2023/09/18 03:58:18;;;;;;;8.50;5.60;;;21.00;96.50;;;;;;5053242;28;20065;-80
2023/09/18 04:00:44;;;;;;;10.85;6.20;;;20.90;96.60;;;;;;5036725;28;20059;-80
2023/09/18 04:03:09;;;;;;;12.07;6.45;;;20.80;96.60;;;;;;5053194;28;20033;-80
2023/09/18 04:05:35;;;;;;;11.30;5.50;;;20.80;96.70;;;;;;5036668;28;20038;-80
2023/09/18 04:08:00;;;;;;;12.00;5.90;;;20.80;96.70;;;;;;5020261;28;20022;-80
2023/09/18 04:10:26;;;;;;;11.63;6.07;;;20.80;96.70;;;;;;5054178;28;20376;-79
2023/09/18 04:12:52;;;;;;;11.50;5.70;;;20.80;96.70;;;;;;5036543;28;20025;-80
2023/09/18 04:15:19;;;;;;;10.32;4.88;;;20.90;96.70;;;;;;5053076;28;20097;-80
2023/09/18 04:17:45;;;;;;;12.25;4.95;;;20.90;96.60;;;;;;5053929;28;20018;-80
2023/09/18 04:20:11;;;;;;;10.82;5.03;;;20.90;96.70;;;;;;5036330;28;20048;-79
2023/09/18 04:22:49;;;;;;;11.23;5.43;;;20.90;96.70;;;;;;5053989;28;20022;-80
2023/09/18 04:25:16;;;;;;;11.32;5.90;;;21.00;96.70;;;;;;5053971;28;20048;-80
2023/09/18 04:27:41;;;;;;;8.73;4.90;;;21.00;96.70;;;;;;5053140;28;20033;-80
2023/09/18 04:30:11;;;;;;;12.80;5.72;;;21.00;96.80;;;;;;5052465;28;20026;-79
2023/09/18 04:32:37;;;;;;;11.48;5.72;;;21.10;96.80;;;;;;5052671;28;20102;-79
2023/09/18 04:35:04;;;;;;;10.77;5.57;;;21.10;96.70;;;;;;5052602;28;20080;-80
2023/09/18 04:37:30;;;;;;;9.02;5.65;;;21.10;96.70;;;;;;5052489;28;20045;-79
2023/09/18 04:39:57;;;;;;;14.15;5.43;;;21.10;96.80;;;;;;5053645;28;20025;-80
2023/09/18 04:42:23;;;;;;;11.10;5.53;;;21.00;97.00;;;;;;5053541;28;20029;-80
2023/09/18 04:44:49;;;;;;;11.80;5.80;;;21.00;97.20;;;;;;5019617;28;20033;-80
2023/09/18 04:47:15;;;;;;;11.82;5.43;;;21.00;97.30;;;;;;5052440;28;20040;-80
2023/09/18 04:49:40;;;;;;;9.32;5.20;;;21.00;97.40;;;;;;5052407;28;20036;-80
2023/09/18 04:52:06;;;;;;;15.50;5.45;;;21.00;97.50;;;;;;5035918;28;20026;-80
2023/09/18 04:54:32;;;;;;;9.60;4.90;;;21.00;97.50;;;;;;5053308;28;20051;-81
2023/09/18 04:56:57;;;;;;;11.65;5.80;;;21.00;97.50;;;;;;5035858;28;20048;-80
2023/09/18 04:59:23;;;;;;;14.30;5.93;;;21.00;97.50;;;;;;5052489;28;20029;-80
2023/09/18 05:01:48;;;;;;;10.48;5.82;;;21.00;97.40;;;;;;5035769;28;20030;-80
2023/09/18 05:04:14;;;;;;;9.52;5.93;;;21.10;97.40;;;;;;5035794;28;20025;-80
2023/09/18 05:06:41;;;;;;;11.50;5.65;;;21.10;97.30;;;;;;5052191;28;20044;-81
2023/09/18 05:09:07;;;;;;;16.55;6.35;;;21.10;97.20;;;;;;5036037;28;20032;-79
2023/09/18 05:11:34;;;;;;;7.97;4.75;;;21.10;97.20;;;;;;5035831;28;20049;-79
2023/09/18 05:13:59;;;;;;;8.52;5.00;;;21.10;97.20;;;;;;5035784;28;20022;-79
2023/09/18 05:16:25;;;;;;;8.93;5.35;;;21.10;97.20;;;;;;5052044;28;20485;-79
2023/09/18 05:18:51;;;;;;;9.80;4.93;;;21.10;97.20;;;;;;5053054;28;20037;-80
2023/09/18 05:21:22;;;;;;;11.63;5.63;;;21.10;97.10;;;;;;5035607;28;20026;-79
2023/09/18 05:23:48;;;;;;;13.25;5.10;;;21.10;97.20;;;;;;5052124;28;20034;-80
2023/09/18 05:26:13;;;;;;;8.55;5.40;;;21.00;97.30;;;;;;5052969;28;20037;-80
2023/09/18 05:28:39;;;;;;;11.82;5.35;;;21.00;97.40;;;;;;5035507;28;20036;-79
2023/09/18 05:31:05;;;;;;;10.38;5.70;;;21.00;97.40;;;;;;5035474;28;20033;-80
2023/09/18 05:33:30;;;;;;;9.50;5.38;;;21.00;97.50;;;;;;5051829;28;20030;-81
2023/09/18 05:35:56;;;;;;;8.70;5.50;;;21.00;97.50;;;;;;5019039;28;20028;-81
2023/09/18 05:38:21;;;;;;;8.77;5.80;;;21.00;97.60;;;;;;5052729;28;20116;-81
2023/09/18 05:40:47;;;;;;;8.30;5.28;;;21.00;97.50;;;;;;5054924;28;20038;-81
2023/09/18 05:43:14;;;;;;;8.60;4.43;;;21.00;97.50;;;;;;5039372;28;20056;-81
2023/09/18 05:45:40;;;;;;;6.05;4.65;;;21.00;97.40;;;;;;5056755;28;20045;-80
2023/09/18 05:48:06;;;;;;;9.57;4.60;;;20.90;97.30;;;;;;5056806;28;20014;-80
2023/09/18 05:50:33;;;;;;;6.63;3.70;;;20.90;97.10;;;;;;5056684;28;20032;-80
2023/09/18 05:53:00;;;;;;;8.93;4.60;;;20.90;97.50;;;;;;5055651;28;20021;-80
2023/09/18 05:55:29;;;;;;;8.05;3.67;;;20.90;97.20;;;;;;5056574;28;20028;-80
2023/09/18 05:57:54;;;;;;;8.15;4.13;;;20.90;96.80;;;;;;5056574;28;20022;-80
2023/09/18 06:00:21;;;;;;;8.57;3.58;;;20.80;96.60;;;;;;5038987;28;20128;-80
2023/09/18 06:02:47;;;;;;;4.57;2.90;;;20.90;96.60;;;;;;5039145;28;20048;-80
2023/09/18 06:05:15;;;;;;;3.97;2.50;;;20.90;96.40;;;;;;5056562;28;20033;-80
2023/09/18 06:07:41;;;;;;;5.57;2.75;;;20.80;96.10;;;;;;5055463;28;20168;-81
2023/09/18 06:10:07;;;;;;;7.80;2.50;;;20.90;96.10;;;;;;5056368;28;20022;-81
2023/09/18 06:12:33;;;;;;;6.13;2.67;;;20.90;96.00;;;;;;5055224;28;20021;-80
2023/09/18 06:14:59;;;;;;;5.70;2.20;;;20.90;96.10;;;;;;5056291;28;20031;-80
2023/09/18 06:17:24;;;;;;;6.03;2.70;;;20.90;95.90;;;;;;5055313;28;20098;-80
2023/09/18 06:19:50;;;;;;;4.10;2.28;;;20.90;96.20;;;;;;5055245;28;20030;-80
2023/09/18 06:22:16;;;;;;;5.18;2.33;;;20.90;95.80;;;;;;5056161;28;20420;-80
2023/09/18 06:24:42;;;;;;;5.60;2.22;;;20.90;95.70;;;;;;5038720;28;20032;-80
2023/09/18 06:27:07;;;;;;;4.20;2.67;;;20.90;95.50;;;;;;5038478;28;20030;-80
2023/09/18 06:29:34;;;;;;;4.55;1.98;;;20.90;96.00;;;;;;5038519;28;20026;-81
2023/09/18 06:32:00;;;;;;;4.88;2.17;;;20.90;95.60;;;;;;5055008;28;20013;-80
2023/09/18 06:34:28;;;;;;;5.25;1.80;;;20.80;95.70;;;;;;5054962;28;20057;-80
2023/09/18 06:36:54;;;;;;;3.13;1.50;;;20.80;95.60;;;;;;5054689;28;20041;-81
2023/09/18 06:39:23;;;;;;;3.53;1.90;;;20.70;95.60;;;;;;5055957;28;20041;-81
2023/09/18 06:41:49;;;;;;;3.10;1.80;;;20.70;95.70;;;;;;5038918;28;20105;-80
2023/09/18 06:44:15;;;;;;;3.85;1.63;;;20.70;95.70;;;;;;5021918;28;20025;-81
2023/09/18 06:46:41;;;;;;;4.85;1.95;;;20.70;95.60;;;;;;5054662;28;20042;-80
2023/09/18 06:49:06;;;;;;;5.00;2.15;;;20.70;95.60;;;;;;5054693;28;20033;-81
2023/09/18 06:51:32;;;;;;;2.60;1.40;;;20.80;95.60;;;;;;5054557;28;20040;-81
2023/09/18 06:53:58;;;;;;;3.17;1.70;;;20.70;95.80;;;;;;5054527;28;20461;-81
2023/09/18 06:56:24;;;;;;;3.25;1.80;;;20.80;95.80;;;;;;5055590;28;20048;-79
2023/09/18 06:58:51;;;;;;;4.05;1.73;;;20.80;95.70;;;;;;5054486;28;20029;-80
2023/09/18 07:01:20;;;;;;;2.60;1.50;;;20.80;95.60;;;;;;5038084;28;20030;-80
2023/09/18 07:03:47;;;;;;;2.83;1.20;;;20.80;95.60;;;;;;5038473;28;20022;-80
2023/09/18 07:06:15;;;;;;;2.75;1.73;;;20.80;95.50;;;;;;5055231;28;20025;-81
2023/09/18 07:08:44;;;;;;;2.80;1.60;;;20.80;95.60;;;;;;5055270;28;20044;-80
2023/09/18 07:11:09;;;;;;;2.85;1.80;;;20.70;95.50;;;;;;5054363;28;20032;-81
2023/09/18 07:13:35;;;;;;;3.00;1.70;;;20.80;95.60;;;;;;5054338;28;20026;-80
2023/09/18 07:16:01;;;;;;;5.70;1.35;;;20.80;95.60;;;;;;5054188;28;20041;-80
2023/09/18 07:18:26;;;;;;;2.70;1.67;;;20.80;95.40;;;;;;5021320;28;20021;-80
2023/09/18 07:20:52;;;;;;;2.88;1.50;;;20.80;95.30;;;;;;5054155;28;20084;-80
2023/09/18 07:23:18;;;;;;;3.55;1.55;;;20.70;95.10;;;;;;5037503;28;20037;-79
2023/09/18 07:25:44;;;;;;;2.08;1.30;;;20.80;95.50;;;;;;5053979;28;20030;-80
2023/09/18 07:28:15;;;;;;;2.70;1.40;;;20.70;95.40;;;;;;5037479;28;20018;-83
2023/09/18 07:30:41;;;;;;;5.50;1.70;;;20.80;95.40;;;;;;5038228;28;20096;-83
2023/09/18 07:33:07;;;;;;;3.55;1.55;;;20.80;95.40;;;;;;5037359;28;20033;-84
2023/09/18 07:35:32;;;;;;;2.72;1.30;;;20.70;95.30;;;;;;5037289;28;20029;-83
2023/09/18 07:37:58;;;;;;;2.42;1.30;;;20.70;95.10;;;;;;5020705;28;20056;-84
2023/09/18 07:40:24;;;;;;;3.10;1.58;;;20.70;95.50;;;;;;5053761;28;20058;-82
2023/09/18 07:42:49;;;;;;;3.40;1.52;;;20.70;95.30;;;;;;5054620;28;20089;-82
2023/09/18 07:45:15;;;;;;;3.17;1.45;;;20.70;95.60;;;;;;5053823;28;20033;-82
2023/09/18 07:47:41;;;;;;;4.05;1.73;;;20.60;95.60;;;;;;5053448;28;20041;-84
2023/09/18 07:50:07;;;;;;;4.70;1.75;;;20.70;95.40;;;;;;5053518;28;20079;-84
2023/09/18 07:52:32;;;;;;;3.17;1.63;;;20.70;95.60;;;;;;5053520;28;20022;-81
2023/09/18 07:54:59;;;;;;;2.42;1.33;;;20.60;95.30;;;;;;5054352;28;20029;-82
2023/09/18 07:57:25;;;;;;;4.55;1.50;;;20.70;95.40;;;;;;5053357;28;20036;-81
2023/09/18 07:59:51;;;;;;;4.25;1.88;;;20.60;95.30;;;;;;5054292;28;20037;-85
2023/09/18 08:02:17;;;;;;;3.22;1.70;;;20.60;95.20;;;;;;5053048;28;20040;-83
2023/09/18 08:04:43;;;;;;;2.85;1.65;;;20.70;95.20;;;;;;5036810;28;20093;-84
2023/09/18 08:07:09;;;;;;;3.40;1.73;;;20.60;95.40;;;;;;5036652;28;20485;-82
2023/09/18 08:09:38;;;;;;;3.53;1.42;;;20.70;95.40;;;;;;5036750;28;20067;-81
2023/09/18 08:12:05;;;;;;;3.75;1.50;;;20.70;95.40;;;;;;5053158;28;20032;-82
2023/09/18 08:14:30;;;;;;;2.53;1.52;;;20.70;95.20;;;;;;5054017;28;20014;-82
2023/09/18 08:16:58;;;;;;;2.90;1.35;;;20.60;95.20;;;;;;5053122;28;20502;-82
2023/09/18 08:19:26;;;;;;;3.42;1.65;;;20.60;95.10;;;;;;5052928;28;20033;-81
2023/09/18 08:21:54;;;;;;;3.00;1.40;;;20.60;95.20;;;;;;5036704;28;20036;-83
2023/09/18 08:24:21;;;;;;;3.42;1.30;;;20.60;95.20;;;;;;5052895;28;20392;-82
2023/09/18 08:26:46;;;;;;;4.38;1.80;;;20.70;95.10;;;;;;5052752;28;20030;-80
2023/09/18 08:29:13;;;;;;;2.72;1.40;;;20.70;95.10;;;;;;5052723;28;20088;-83
2023/09/18 08:31:38;;;;;;;2.92;1.80;;;20.70;95.00;;;;;;5053745;28;20025;-83
2023/09/18 08:34:04;;;;;;;3.47;1.50;;;20.80;94.90;;;;;;5053600;28;20092;-83
2023/09/18 08:36:30;;;;;;;4.97;1.70;;;20.80;94.80;;;;;;5036099;28;20400;-83
2023/09/18 08:38:56;;;;;;;3.78;1.63;;;20.80;94.80;;;;;;5036245;28;20042;-84
2023/09/18 08:41:26;;;;;;;5.07;1.80;;;20.80;94.70;;;;;;5052720;28;20036;-81
2023/09/18 08:43:56;;;;;;;4.90;1.80;;;20.90;94.70;;;;;;5052686;28;20049;-83
2023/09/18 08:46:22;;;;;;;3.55;1.65;;;20.80;94.70;;;;;;5053491;28;20032;-82
2023/09/18 08:48:49;;;;;;;4.05;1.83;;;20.80;94.70;;;;;;5035988;28;20453;-82
2023/09/18 08:51:18;;;;;;;3.60;1.77;;;20.80;94.70;;;;;;5036257;28;20477;-82
2023/09/18 08:53:44;;;;;;;4.43;2.10;;;20.90;94.60;;;;;;5052366;28;20081;-82
2023/09/18 08:56:12;;;;;;;3.28;1.50;;;20.90;94.60;;;;;;5053321;28;20028;-83
2023/09/18 08:58:42;;;;;;;3.70;1.58;;;20.90;94.40;;;;;;5052388;28;20101;-86
2023/09/18 09:01:11;;;;;;;2.85;1.52;;;20.80;94.50;;;;;;5053292;28;20029;-80
2023/09/18 09:03:41;;;;;;;3.78;1.58;;;20.90;94.60;;;;;;5052342;28;20076;-79
2023/09/18 09:06:09;;;;;;;3.80;1.90;;;20.80;94.50;;;;;;5035933;28;20037;-79
2023/09/18 09:08:36;;;;;;;3.33;1.60;;;20.90;94.30;;;;;;5052296;28;20021;-80
2023/09/18 09:11:02;;;;;;;4.63;1.50;;;20.90;94.50;;;;;;5053215;28;20029;-81
2023/09/18 09:13:28;;;;;;;4.93;1.55;;;20.90;94.20;;;;;;5053130;28;20029;-80
2023/09/18 09:15:56;;;;;;;3.92;1.90;;;20.90;94.00;;;;;;5052569;28;20113;-80
2023/09/18 09:18:23;;;;;;;3.63;1.63;;;21.00;94.20;;;;;;5052138;28;20025;-80
2023/09/18 09:21:01;;;;;;;6.97;2.22;;;21.10;94.10;;;;;;5052132;28;20022;-80
2023/09/18 09:23:49;;;;;;;3.00;1.90;;;21.10;94.20;;;;;;5052110;28;20036;-80
2023/09/18 09:26:20;;;;;;;4.13;1.98;;;21.20;94.60;;;;;;5049237;28;20048;-80
2023/09/18 09:28:46;;;;;;;5.28;2.22;;;21.40;94.40;;;;;;5052062;28;20028;-80
2023/09/18 09:31:31;;;;;;;2.40;1.80;;;21.60;93.80;;;;;;5052137;28;20032;-81
2023/09/18 09:33:58;;;;;;;3.22;1.58;;;21.70;94.10;;;;;;5052928;28;20025;-80
2023/09/18 09:36:24;;;;;;;3.72;1.50;;;21.80;93.30;;;;;;5052806;28;20040;-80
2023/09/18 09:38:58;;;;;;;5.03;1.60;;;21.80;92.90;;;;;;5053113;28;20017;-80
2023/09/18 09:41:24;;;;;;;3.22;1.50;;;21.90;93.10;;;;;;5035466;28;20038;-80
2023/09/18 09:43:51;;;;;;;2.83;1.63;;;21.90;92.10;;;;;;5035438;28;20042;-80
2023/09/18 09:46:18;;;;;;;3.25;1.88;;;22.00;92.00;;;;;;5051893;28;20025;-80
2023/09/18 09:49:05;;;;;;;4.70;1.88;;;21.90;92.10;;;;;;5051911;28;20045;-80
2023/09/18 09:51:32;;;;;;;4.18;2.28;;;22.00;92.20;;;;;;5052859;28;20093;-80
2023/09/18 09:54:00;;;;;;;5.05;2.03;;;22.20;92.10;;;;;;5035315;28;20022;-80
2023/09/18 09:56:45;;;;;;;4.40;2.10;;;22.20;91.80;;;;;;5051799;28;20032;-79
2023/09/18 09:59:13;;;;;;;7.90;2.40;;;22.30;92.30;;;;;;5051740;28;20037;-80
2023/09/18 10:01:40;;;;;;;5.82;2.85;;;22.30;91.60;;;;;;5051744;28;20033;-80
2023/09/18 10:04:10;;;;;;;3.85;2.25;;;22.40;91.50;;;;;;5052742;28;20021;-79
2023/09/18 10:06:36;;;;;;;5.30;2.30;;;22.40;91.30;;;;;;5051664;28;20026;-79
2023/09/18 10:09:06;;;;;;;4.70;2.35;;;22.30;91.80;;;;;;5051704;28;20030;-79
2023/09/18 10:11:36;;;;;;;3.58;2.38;;;22.30;91.40;;;;;;5051608;28;20405;-79
2023/09/18 10:14:10;;;;;;;5.70;2.90;;;22.40;91.80;;;;;;5051770;28;20028;-79
2023/09/18 10:16:39;;;;;;;4.85;2.20;;;22.50;90.50;;;;;;5051634;28;20026;-79
2023/09/18 10:19:28;;;;;;;5.88;2.47;;;22.60;90.30;;;;;;5051670;28;20029;-79
2023/09/18 10:22:05;;;;;;;5.47;2.25;;;22.70;90.40;;;;;;5052729;28;20026;-80
2023/09/18 10:24:33;;;;;;;3.38;2.50;;;22.50;90.40;;;;;;5051634;28;20104;-80
2023/09/18 10:27:03;;;;;;;4.78;2.45;;;22.50;90.70;;;;;;5053872;28;20031;-79
2023/09/18 10:29:30;;;;;;;3.05;2.20;;;22.40;90.20;;;;;;5055153;28;20028;-79
2023/09/18 10:31:56;;;;;;;3.78;2.45;;;22.30;90.40;;;;;;5055054;28;20048;-80
2023/09/18 10:34:26;;;;;;;4.28;2.45;;;22.20;90.20;;;;;;5055153;28;20030;-80
2023/09/18 10:36:54;;;;;;;7.43;2.58;;;22.30;90.20;;;;;;5054720;28;20053;-79
2023/09/18 10:39:23;;;;;;;4.50;1.98;;;22.30;90.20;;;;;;5055864;28;20041;-79
2023/09/18 10:41:52;;;;;;;4.22;2.28;;;22.30;90.00;;;;;;5054762;28;20025;-79
2023/09/18 10:44:18;;;;;;;4.80;2.20;;;22.30;90.50;;;;;;5054788;28;20021;-79
2023/09/18 10:46:49;;;;;;;3.97;2.58;;;22.30;90.10;;;;;;5038145;28;20120;-79
2023/09/18 10:49:16;;;;;;;5.65;2.38;;;22.20;90.60;;;;;;5055637;28;20017;-79
2023/09/18 10:51:43;;;;;;;4.43;2.30;;;22.30;90.60;;;;;;5055597;28;20049;-79
2023/09/18 10:54:10;;;;;;;3.78;2.28;;;22.40;90.60;;;;;;5054589;28;20017;-79
2023/09/18 10:56:36;;;;;;;3.92;2.40;;;22.60;90.40;;;;;;5054497;28;20036;-79
2023/09/18 10:59:03;;;;;;;7.47;2.88;;;22.70;90.30;;;;;;5054444;28;20037;-79
2023/09/18 11:01:30;;;;;;;3.08;2.20;;;22.80;90.80;;;;;;5055466;28;20037;-78
2023/09/18 11:04:03;;;;;;;4.18;2.40;;;22.70;88.80;;;;;;5021663;28;20037;-79
2023/09/18 11:06:29;;;;;;;3.40;2.30;;;22.70;88.50;;;;;;5054252;28;20025;-78
2023/09/18 11:09:07;;;;;;;4.80;2.47;;;22.70;89.80;;;;;;5037737;28;20102;-79
2023/09/18 11:11:35;;;;;;;5.20;2.50;;;22.90;90.80;;;;;;5054255;28;20056;-79
2023/09/18 11:14:01;;;;;;;3.55;2.38;;;23.10;90.40;;;;;;5055198;28;20014;-79
2023/09/18 11:16:26;;;;;;;4.13;2.35;;;23.20;89.40;;;;;;5055175;28;20030;-80
2023/09/18 11:18:59;;;;;;;4.43;2.53;;;23.10;88.50;;;;;;5055134;28;20032;-81
2023/09/18 11:21:30;;;;;;;3.72;2.20;;;23.10;87.50;;;;;;5054078;28;20037;-80
2023/09/18 11:24:04;;;;;;;6.07;2.85;;;23.00;87.00;;;;;;5054313;28;20030;-80
2023/09/18 11:26:33;;;;;;;5.35;2.80;;;23.00;88.60;;;;;;5038150;28;20055;-80
2023/09/18 11:29:09;;;;;;;4.47;2.22;;;22.90;88.10;;;;;;5054095;28;20032;-80
2023/09/18 11:31:43;;;;;;;6.85;2.38;;;23.00;88.40;;;;;;5053847;28;20024;-79
2023/09/18 11:34:31;;;;;;;4.32;2.63;;;23.00;88.40;;;;;;5053796;28;20010;-80
2023/09/18 11:36:57;;;;;;;6.35;2.75;;;23.10;87.90;;;;;;5053378;28;20053;-80
2023/09/18 11:39:52;;;;;;;6.70;2.40;;;23.10;87.10;;;;;;5054700;28;20036;-79
2023/09/18 11:42:19;;;;;;;5.85;2.45;;;23.00;87.30;;;;;;5045154;28;20048;-79
2023/09/18 11:44:48;;;;;;;5.45;2.30;;;22.80;86.80;;;;;;5037141;28;20026;-79
2023/09/18 11:47:19;;;;;;;8.25;2.75;;;22.80;87.90;;;;;;5053623;28;20034;-79
2023/09/18 11:49:57;;;;;;;3.60;2.40;;;23.10;88.40;;;;;;5053579;28;20040;-80
2023/09/18 11:52:28;;;;;;;6.28;2.70;;;23.30;87.50;;;;;;5037846;28;20272;-80
2023/09/18 11:54:56;;;;;;;4.82;2.65;;;23.40;87.40;;;;;;5054502;28;20520;-80
2023/09/18 11:57:22;;;;;;;4.30;2.90;;;23.60;88.30;;;;;;5053479;28;20049;-80
2023/09/18 11:59:50;;;;;;;4.90;2.80;;;23.70;87.40;;;;;;5036830;28;20037;-81
2023/09/18 12:02:35;;;;;;;7.47;2.55;;;23.80;85.40;;;;;;5053246;28;20034;-80
2023/09/18 12:05:24;;;;;;;4.90;2.30;;;23.70;84.20;;;;;;5053237;28;20029;-79
2023/09/18 12:07:50;;;;;;;5.70;2.50;;;23.70;82.60;;;;;;5054143;28;20021;-78
2023/09/18 12:10:18;;;;;;;4.57;2.65;;;23.80;84.80;;;;;;5054091;28;20048;-78
2023/09/18 12:12:44;;;;;;;5.00;2.65;;;23.90;84.40;;;;;;5053038;28;20041;-78
2023/09/18 12:15:16;;;;;;;4.55;2.08;;;24.00;83.40;;;;;;5054017;28;20021;-78
2023/09/18 12:17:42;;;;;;;4.32;2.42;;;24.00;79.80;;;;;;5054050;28;20022;-79
2023/09/18 12:20:20;;;;;;;8.07;2.60;;;23.90;80.90;;;;;;5036614;28;20026;-79
2023/09/18 12:22:50;;;;;;;3.75;2.58;;;23.90;80.80;;;;;;5053000;28;20033;-79
2023/09/18 12:25:18;;;;;;;6.25;2.90;;;24.00;80.60;;;;;;5052912;28;20040;-79
2023/09/18 12:27:44;;;;;;;3.95;2.33;;;23.90;80.60;;;;;;5052688;28;20412;-79
2023/09/18 12:30:11;;;;;;;5.00;2.20;;;23.90;79.80;;;;;;5053754;28;20014;-78
2023/09/18 12:32:38;;;;;;;2.50;2.22;;;23.90;80.60;;;;;;5053707;28;20018;-78
2023/09/18 12:35:06;;;;;;;4.30;2.38;;;23.90;81.20;;;;;;5052682;28;20085;-78
2023/09/18 12:37:34;;;;;;;3.95;2.40;;;23.90;80.20;;;;;;5052487;28;20045;-79
2023/09/18 12:39:59;;;;;;;3.67;2.50;;;24.10;79.90;;;;;;5036294;28;20064;-80
2023/09/18 12:42:26;;;;;;;3.50;2.13;;;24.20;81.80;;;;;;5052785;28;20033;-80